createdAt,value
2023-05-16T00:00:30.082Z,24.32
2023-05-16T00:05:35.415Z,24.43
2023-05-16T00:10:39.048Z,24.38
2023-05-16T00:15:42.861Z,24.31
2023-05-16T00:20:48.179Z,24.31
2023-05-16T00:25:51.820Z,24.19
2023-05-16T00:30:55.453Z,24.06
2023-05-16T00:36:00.730Z,23.94
2023-05-16T00:41:04.526Z,23.71
2023-05-16T00:46:08.199Z,23.57
2023-05-16T00:51:13.492Z,23.47
2023-05-16T00:56:18.440Z,23.44
2023-05-16T01:01:24.001Z,23.22
2023-05-16T01:06:28.548Z,23.14
2023-05-16T01:11:39.767Z,23.08
2023-05-16T01:16:51.596Z,22.78
2023-05-16T01:22:03.753Z,22.59
2023-05-16T01:27:11.482Z,22.33
2023-05-16T01:32:15.076Z,22.15
2023-05-16T01:37:25.180Z,22.08
2023-05-16T01:42:34.044Z,21.88
2023-05-16T01:47:43.491Z,21.83
2023-05-16T01:52:56.426Z,21.74
2023-05-16T01:58:05.122Z,21.60
2023-05-16T02:03:08.876Z,21.48
2023-05-16T02:08:13.014Z,21.31
2023-05-16T02:13:18.270Z,21.22
2023-05-16T02:18:21.875Z,21.19
2023-05-16T02:23:25.503Z,21.13
2023-05-16T02:28:30.771Z,20.92
2023-05-16T02:33:35.150Z,20.75
2023-05-16T02:38:38.749Z,20.63
2023-05-16T02:43:46.186Z,20.58
2023-05-16T02:48:50.796Z,20.36
2023-05-16T02:53:55.198Z,20.07
2023-05-16T02:59:01.076Z,19.84
2023-05-16T03:04:04.948Z,19.84
2023-05-16T03:09:08.664Z,19.81
2023-05-16T03:14:14.635Z,19.63
2023-05-16T03:19:18.457Z,19.43
2023-05-16T03:24:22.192Z,19.36
2023-05-16T03:29:27.529Z,19.16
2023-05-16T03:34:30.384Z,18.98
2023-05-16T03:39:34.045Z,18.98
2023-05-16T03:44:39.303Z,19.10
2023-05-16T03:49:42.918Z,18.95
2023-05-16T03:54:46.514Z,18.86
2023-05-16T03:59:51.781Z,18.57
2023-05-16T04:04:55.403Z,18.32
2023-05-16T04:09:59.214Z,18.09
2023-05-16T04:15:04.895Z,17.99
2023-05-16T04:20:09.112Z,17.76
2023-05-16T04:25:12.753Z,17.57
2023-05-16T04:30:18.437Z,17.53
2023-05-16T04:35:22.060Z,17.51
2023-05-16T04:40:26.197Z,17.48
2023-05-16T04:45:31.411Z,17.32
2023-05-16T04:50:35.055Z,17.18
2023-05-16T04:55:38.690Z,17.14
2023-05-16T05:00:44.710Z,16.98
2023-05-16T05:05:48.329Z,16.89
2023-05-16T05:10:51.923Z,16.74
2023-05-16T05:15:58.180Z,16.70
2023-05-16T05:21:01.818Z,16.54
2023-05-16T05:26:05.836Z,16.44
2023-05-16T05:31:11.146Z,16.36
2023-05-16T05:36:14.805Z,16.23
2023-05-16T05:41:18.515Z,16.05
2023-05-16T05:46:25.559Z,16.02
2023-05-16T05:51:29.329Z,16.03
2023-05-16T05:56:32.939Z,15.95
2023-05-16T06:01:38.888Z,15.79
2023-05-16T06:06:42.557Z,15.79
2023-05-16T06:11:46.158Z,15.64
2023-05-16T06:16:51.504Z,15.52
2023-05-16T06:21:55.133Z,15.50
2023-05-16T06:26:58.691Z,15.45
2023-05-16T06:32:03.958Z,15.46
2023-05-16T06:37:07.650Z,15.35
2023-05-16T06:42:11.306Z,15.34
2023-05-16T06:47:16.853Z,15.28
2023-05-16T06:52:20.621Z,15.08
2023-05-16T06:57:24.259Z,15.06
2023-05-16T07:02:29.674Z,14.83
2023-05-16T07:07:33.439Z,14.85
2023-05-16T07:12:37.751Z,14.85
2023-05-16T07:17:43.085Z,14.71
2023-05-16T07:22:46.774Z,14.73
2023-05-16T07:27:50.414Z,14.70
2023-05-16T07:32:56.718Z,14.56
2023-05-16T07:38:00.325Z,14.51
2023-05-16T07:43:03.960Z,14.48
2023-05-16T07:48:09.315Z,14.40
2023-05-16T07:53:13.923Z,14.28
2023-05-16T07:58:17.891Z,14.25
2023-05-16T08:03:26.086Z,14.14
2023-05-16T08:08:29.901Z,14.01
2023-05-16T08:13:33.615Z,14.09
2023-05-16T08:18:39.018Z,14.12
2023-05-16T08:23:42.686Z,13.95
2023-05-16T08:28:46.340Z,13.94
2023-05-16T08:33:52.618Z,13.92
2023-05-16T08:38:56.642Z,13.89
2023-05-16T08:44:00.711Z,13.80
2023-05-16T08:49:06.998Z,13.72
2023-05-16T08:54:13.972Z,13.65
2023-05-16T08:59:19.336Z,13.55
2023-05-16T09:04:26.867Z,13.46
2023-05-16T09:09:30.625Z,13.38
2023-05-16T09:14:34.294Z,13.35
2023-05-16T09:19:44.610Z,13.38
2023-05-16T09:24:48.392Z,13.33
2023-05-16T09:29:52.749Z,13.29
2023-05-16T09:34:59.077Z,13.30
2023-05-16T09:40:04.025Z,13.39
2023-05-16T09:45:12.540Z,13.25
2023-05-16T09:50:19.469Z,13.23
2023-05-16T09:55:24.642Z,13.15
2023-05-16T10:00:31.668Z,13.05
2023-05-16T10:05:38.005Z,13.07
2023-05-16T10:10:42.156Z,12.91
2023-05-16T10:15:47.856Z,12.82
2023-05-16T10:20:56.081Z,12.86
2023-05-16T10:26:01.841Z,12.80
2023-05-16T10:31:06.652Z,12.72
2023-05-16T10:36:12.846Z,12.71
2023-05-16T10:41:17.415Z,12.65
2023-05-16T10:46:23.546Z,12.63
2023-05-16T10:51:39.112Z,12.54
2023-05-16T10:56:43.097Z,12.58
2023-05-16T11:01:52.946Z,12.54
2023-05-16T11:06:59.695Z,12.41
2023-05-16T11:12:04.080Z,12.41
2023-05-16T11:17:12.847Z,12.38
2023-05-16T11:22:29.276Z,12.30
2023-05-16T11:27:32.725Z,12.24
2023-05-16T11:32:38.122Z,12.30
2023-05-16T11:37:44.855Z,12.30
2023-05-16T11:42:49.272Z,12.25
2023-05-16T11:47:53.109Z,12.25
2023-05-16T11:52:58.834Z,12.27
2023-05-16T11:58:03.028Z,12.28
2023-05-16T12:03:06.888Z,12.35
2023-05-16T12:08:12.224Z,12.40
2023-05-16T12:13:16.772Z,12.38
2023-05-16T12:18:20.754Z,12.46
2023-05-16T12:23:28.470Z,12.43
2023-05-16T12:28:33.849Z,12.35
2023-05-16T12:33:39.057Z,12.40
2023-05-16T12:38:47.908Z,12.39
2023-05-16T12:43:51.772Z,12.41
2023-05-16T12:49:03.879Z,12.41
2023-05-16T12:54:16.713Z,12.37
2023-05-16T12:59:20.511Z,12.38
2023-05-16T13:04:24.626Z,12.45
2023-05-16T13:09:32.658Z,12.50
2023-05-16T13:14:36.814Z,12.56
2023-05-16T13:19:40.504Z,12.61
2023-05-16T13:24:45.917Z,12.67
2023-05-16T13:29:49.548Z,12.77
2023-05-16T13:34:53.471Z,12.88
2023-05-16T13:39:58.881Z,12.92
2023-05-16T13:45:02.574Z,13.00
2023-05-16T13:50:07.346Z,13.08
2023-05-16T13:55:12.919Z,13.22
2023-05-16T14:00:44.519Z,13.33
2023-05-16T14:05:40.855Z,13.46
2023-05-16T14:10:46.184Z,13.61
2023-05-16T14:15:49.891Z,13.63
2023-05-16T14:20:53.589Z,13.67
2023-05-16T14:25:58.891Z,13.68
2023-05-16T14:31:02.728Z,13.72
2023-05-16T14:36:08.475Z,13.77
2023-05-16T14:41:13.291Z,13.82
2023-05-16T14:46:17.008Z,13.87
2023-05-16T14:51:20.762Z,14.11
2023-05-16T14:56:26.133Z,13.98
2023-05-16T15:01:29.817Z,14.17
2023-05-16T15:06:33.504Z,14.42
2023-05-16T15:11:38.877Z,14.75
2023-05-16T15:16:43.077Z,15.13
2023-05-16T15:21:46.867Z,15.14
2023-05-16T15:26:52.190Z,15.67
2023-05-16T15:31:55.935Z,16.28
2023-05-16T15:36:59.765Z,16.52
2023-05-16T15:42:12.087Z,16.46
2023-05-16T15:47:18.856Z,16.68
2023-05-16T15:52:23.049Z,16.61
2023-05-16T15:57:28.447Z,16.47
2023-05-16T16:02:32.280Z,16.96
2023-05-16T16:07:36.041Z,17.97
2023-05-16T16:12:41.560Z,17.95
2023-05-16T16:17:45.223Z,19.10
2023-05-16T16:22:48.902Z,19.68
2023-05-16T16:27:54.693Z,20.38
2023-05-16T16:32:58.549Z,20.97
2023-05-16T16:38:06.062Z,21.19
2023-05-16T16:43:13.525Z,21.12
2023-05-16T16:48:17.186Z,21.63
2023-05-16T16:53:20.874Z,21.94
2023-05-16T16:58:26.165Z,22.32
2023-05-16T17:03:29.175Z,22.61
2023-05-16T17:08:32.890Z,23.06
2023-05-16T17:13:38.251Z,23.28
2023-05-16T17:18:41.958Z,23.78
2023-05-16T17:23:45.669Z,23.88
2023-05-16T17:28:51.092Z,23.74
2023-05-16T17:33:55.602Z,24.20
2023-05-16T17:38:59.411Z,24.34
2023-05-16T17:44:04.937Z,24.56
2023-05-16T17:49:08.653Z,24.68
2023-05-16T17:54:12.454Z,25.03
2023-05-16T17:59:18.253Z,25.25
2023-05-16T18:04:22.764Z,25.35
2023-05-16T18:09:26.469Z,25.03
2023-05-16T18:14:31.941Z,24.85
2023-05-16T18:19:36.858Z,24.68
2023-05-16T18:24:40.685Z,24.66
2023-05-16T18:29:46.642Z,24.70
2023-05-16T18:34:50.507Z,24.98
2023-05-16T18:39:54.416Z,25.30
2023-05-16T18:44:59.725Z,25.29
2023-05-16T18:50:03.388Z,25.44
2023-05-16T18:55:07.773Z,25.46
2023-05-16T19:00:14.255Z,25.50
2023-05-16T19:05:18.275Z,25.71
2023-05-16T19:10:22.242Z,26.00
2023-05-16T19:15:27.803Z,25.94
2023-05-16T19:20:32.021Z,26.01
2023-05-16T19:25:35.746Z,26.57
2023-05-16T19:30:41.354Z,26.73
2023-05-16T19:35:45.174Z,26.51
2023-05-16T19:40:48.798Z,26.53
2023-05-16T19:45:54.246Z,26.62
2023-05-16T19:50:57.925Z,26.58
2023-05-16T19:56:01.881Z,26.58
2023-05-16T20:01:07.223Z,26.47
2023-05-16T20:06:10.876Z,26.46
2023-05-16T20:11:14.630Z,26.40
2023-05-16T20:16:20.047Z,26.32
2023-05-16T20:21:23.711Z,26.71
2023-05-16T20:26:27.419Z,26.70
2023-05-16T20:31:32.733Z,26.55
2023-05-16T20:36:36.497Z,26.71
2023-05-16T20:41:40.188Z,26.69
2023-05-16T20:46:46.224Z,26.88
2023-05-16T20:51:49.906Z,27.06
2023-05-16T20:56:53.605Z,27.11
2023-05-16T21:01:58.984Z,27.08
2023-05-16T21:07:02.709Z,27.05
2023-05-16T21:12:07.031Z,27.33
2023-05-16T21:17:12.407Z,27.10
2023-05-16T21:22:16.072Z,27.28
2023-05-16T21:27:19.767Z,27.30
2023-05-16T21:32:25.154Z,27.42
2023-05-16T21:37:28.855Z,27.55
2023-05-16T21:42:32.466Z,27.35
2023-05-16T21:47:37.798Z,27.48
2023-05-16T21:52:41.654Z,27.47
2023-05-16T21:57:45.287Z,27.42
2023-05-16T22:02:50.722Z,27.40
2023-05-16T22:07:54.426Z,27.39
2023-05-16T22:12:58.065Z,27.32
2023-05-16T22:18:03.511Z,27.31
2023-05-16T22:23:07.174Z,27.22
2023-05-16T22:28:10.825Z,27.31
2023-05-16T22:33:16.199Z,27.36
2023-05-16T22:38:20.006Z,27.46
2023-05-16T22:43:23.652Z,27.41
2023-05-16T22:48:29.065Z,27.61
2023-05-16T22:53:32.784Z,27.74
2023-05-16T22:58:36.529Z,27.78
2023-05-16T23:03:42.334Z,27.78
2023-05-16T23:08:46.606Z,27.76
2023-05-16T23:13:50.230Z,27.62
2023-05-16T23:18:56.316Z,27.65
2023-05-16T23:23:59.981Z,27.75
2023-05-16T23:29:03.695Z,27.77
2023-05-16T23:34:09.117Z,27.57
2023-05-16T23:39:13.005Z,27.50
2023-05-16T23:44:16.663Z,27.59
2023-05-16T23:49:22.002Z,27.50
2023-05-16T23:54:25.706Z,27.53
2023-05-16T23:59:29.362Z,27.59
